sensor_id;sensor_type;location;lat;lon;timestamp;P1;durP1;ratioP1;P2;durP2;ratioP2
9942;SDS011;5010;45.080;7.634;2023-03-24T00:00:30;11.10;;;5.38;;
9942;SDS011;5010;45.080;7.634;2023-03-24T00:02:57;7.72;;;5.40;;
9942;SDS011;5010;45.080;7.634;2023-03-24T00:05:26;11.27;;;6.57;;
9942;SDS011;5010;45.080;7.634;2023-03-24T00:07:56;12.52;;;7.20;;
9942;SDS011;5010;45.080;7.634;2023-03-24T00:10:23;8.60;;;6.25;;
9942;SDS011;5010;45.080;7.634;2023-03-24T00:12:54;10.35;;;5.35;;
9942;SDS011;5010;45.080;7.634;2023-03-24T00:15:23;6.25;;;4.88;;
9942;SDS011;5010;45.080;7.634;2023-03-24T00:17:50;9.75;;;6.45;;
9942;SDS011;5010;45.080;7.634;2023-03-24T00:20:21;9.05;;;5.65;;
9942;SDS011;5010;45.080;7.634;2023-03-24T00:22:49;11.25;;;6.32;;
9942;SDS011;5010;45.080;7.634;2023-03-24T00:25:22;7.97;;;6.97;;
9942;SDS011;5010;45.080;7.634;2023-03-24T00:27:52;10.73;;;6.75;;
9942;SDS011;5010;45.080;7.634;2023-03-24T00:30:19;14.32;;;6.25;;
9942;SDS011;5010;45.080;7.634;2023-03-24T00:32:47;10.45;;;6.28;;
9942;SDS011;5010;45.080;7.634;2023-03-24T00:35:15;7.53;;;5.88;;
9942;SDS011;5010;45.080;7.634;2023-03-24T00:37:42;6.78;;;5.28;;
9942;SDS011;5010;45.080;7.634;2023-03-24T00:40:10;7.63;;;6.20;;
9942;SDS011;5010;45.080;7.634;2023-03-24T00:42:42;9.65;;;6.93;;
9942;SDS011;5010;45.080;7.634;2023-03-24T00:45:10;9.50;;;5.35;;
9942;SDS011;5010;45.080;7.634;2023-03-24T00:47:39;6.68;;;5.38;;
9942;SDS011;5010;45.080;7.634;2023-03-24T00:50:10;6.88;;;5.35;;
9942;SDS011;5010;45.080;7.634;2023-03-24T00:52:40;8.20;;;6.20;;
9942;SDS011;5010;45.080;7.634;2023-03-24T00:55:08;23.77;;;8.20;;
9942;SDS011;5010;45.080;7.634;2023-03-24T00:57:40;6.85;;;4.93;;
9942;SDS011;5010;45.080;7.634;2023-03-24T01:00:14;8.63;;;6.35;;
9942;SDS011;5010;45.080;7.634;2023-03-24T01:02:44;7.82;;;5.00;;
9942;SDS011;5010;45.080;7.634;2023-03-24T01:05:12;6.72;;;4.72;;
9942;SDS011;5010;45.080;7.634;2023-03-24T01:07:41;9.65;;;5.47;;
9942;SDS011;5010;45.080;7.634;2023-03-24T01:10:11;12.00;;;5.28;;
9942;SDS011;5010;45.080;7.634;2023-03-24T01:12:39;7.15;;;5.35;;
9942;SDS011;5010;45.080;7.634;2023-03-24T01:15:10;7.53;;;5.70;;
9942;SDS011;5010;45.080;7.634;2023-03-24T01:17:38;7.18;;;5.35;;
9942;SDS011;5010;45.080;7.634;2023-03-24T01:20:06;8.18;;;5.45;;
9942;SDS011;5010;45.080;7.634;2023-03-24T01:22:36;7.38;;;6.00;;
9942;SDS011;5010;45.080;7.634;2023-03-24T01:25:04;7.93;;;5.80;;
9942;SDS011;5010;45.080;7.634;2023-03-24T01:27:33;7.07;;;5.65;;
9942;SDS011;5010;45.080;7.634;2023-03-24T01:30:01;9.82;;;5.82;;
9942;SDS011;5010;45.080;7.634;2023-03-24T01:32:31;7.00;;;5.63;;
9942;SDS011;5010;45.080;7.634;2023-03-24T01:34:58;8.13;;;5.88;;
9942;SDS011;5010;45.080;7.634;2023-03-24T01:37:25;8.63;;;5.05;;
9942;SDS011;5010;45.080;7.634;2023-03-24T01:39:52;8.13;;;5.57;;
9942;SDS011;5010;45.080;7.634;2023-03-24T01:42:20;6.30;;;5.75;;
9942;SDS011;5010;45.080;7.634;2023-03-24T01:44:53;8.52;;;5.25;;
9942;SDS011;5010;45.080;7.634;2023-03-24T01:47:25;6.88;;;6.25;;
9942;SDS011;5010;45.080;7.634;2023-03-24T01:49:55;7.55;;;5.20;;
9942;SDS011;5010;45.080;7.634;2023-03-24T01:52:27;8.65;;;7.07;;
9942;SDS011;5010;45.080;7.634;2023-03-24T01:54:56;7.95;;;6.05;;
9942;SDS011;5010;45.080;7.634;2023-03-24T01:57:28;10.77;;;5.53;;
9942;SDS011;5010;45.080;7.634;2023-03-24T01:59:59;7.75;;;5.40;;
9942;SDS011;5010;45.080;7.634;2023-03-24T02:02:32;6.15;;;5.45;;
9942;SDS011;5010;45.080;7.634;2023-03-24T02:05:02;6.82;;;5.03;;
9942;SDS011;5010;45.080;7.634;2023-03-24T02:07:33;9.75;;;6.45;;
9942;SDS011;5010;45.080;7.634;2023-03-24T02:10:05;7.55;;;5.70;;
9942;SDS011;5010;45.080;7.634;2023-03-24T02:12:35;8.75;;;6.63;;
9942;SDS011;5010;45.080;7.634;2023-03-24T02:15:02;7.47;;;6.60;;
9942;SDS011;5010;45.080;7.634;2023-03-24T02:20:31;8.93;;;5.93;;
9942;SDS011;5010;45.080;7.634;2023-03-24T02:23:33;6.47;;;4.65;;
9942;SDS011;5010;45.080;7.634;2023-03-24T02:26:24;7.47;;;4.57;;
9942;SDS011;5010;45.080;7.634;2023-03-24T02:29:11;6.75;;;5.32;;
9942;SDS011;5010;45.080;7.634;2023-03-24T02:32:03;9.63;;;6.20;;
9942;SDS011;5010;45.080;7.634;2023-03-24T02:34:48;10.85;;;7.13;;
9942;SDS011;5010;45.080;7.634;2023-03-24T02:37:34;7.88;;;5.65;;
9942;SDS011;5010;45.080;7.634;2023-03-24T02:40:31;6.30;;;5.07;;
9942;SDS011;5010;45.080;7.634;2023-03-24T02:43:03;5.22;;;4.18;;
9942;SDS011;5010;45.080;7.634;2023-03-24T02:45:36;5.97;;;4.97;;
9942;SDS011;5010;45.080;7.634;2023-03-24T02:48:14;7.45;;;5.50;;
9942;SDS011;5010;45.080;7.634;2023-03-24T02:50:48;9.68;;;5.55;;
9942;SDS011;5010;45.080;7.634;2023-03-24T02:53:21;6.82;;;5.95;;
9942;SDS011;5010;45.080;7.634;2023-03-24T02:55:57;6.63;;;5.28;;
9942;SDS011;5010;45.080;7.634;2023-03-24T02:58:27;6.93;;;5.60;;
9942;SDS011;5010;45.080;7.634;2023-03-24T03:01:02;7.72;;;6.28;;
9942;SDS011;5010;45.080;7.634;2023-03-24T03:03:34;6.47;;;5.13;;
9942;SDS011;5010;45.080;7.634;2023-03-24T03:06:06;6.97;;;5.38;;
9942;SDS011;5010;45.080;7.634;2023-03-24T03:08:38;6.97;;;4.72;;
9942;SDS011;5010;45.080;7.634;2023-03-24T03:11:08;7.22;;;5.38;;
9942;SDS011;5010;45.080;7.634;2023-03-24T03:13:41;7.95;;;5.47;;
9942;SDS011;5010;45.080;7.634;2023-03-24T03:16:15;8.07;;;6.30;;
9942;SDS011;5010;45.080;7.634;2023-03-24T03:18:47;10.05;;;5.85;;
9942;SDS011;5010;45.080;7.634;2023-03-24T03:21:17;6.78;;;5.63;;
9942;SDS011;5010;45.080;7.634;2023-03-24T03:23:48;7.55;;;5.90;;
9942;SDS011;5010;45.080;7.634;2023-03-24T03:26:20;7.97;;;6.28;;
9942;SDS011;5010;45.080;7.634;2023-03-24T03:28:51;7.45;;;5.13;;
9942;SDS011;5010;45.080;7.634;2023-03-24T03:31:23;6.68;;;6.25;;
9942;SDS011;5010;45.080;7.634;2023-03-24T03:33:57;5.88;;;5.07;;
9942;SDS011;5010;45.080;7.634;2023-03-24T03:36:31;7.60;;;6.80;;
9942;SDS011;5010;45.080;7.634;2023-03-24T03:39:05;7.82;;;5.30;;
9942;SDS011;5010;45.080;7.634;2023-03-24T03:41:41;6.35;;;4.50;;
9942;SDS011;5010;45.080;7.634;2023-03-24T03:44:09;5.95;;;5.25;;
9942;SDS011;5010;45.080;7.634;2023-03-24T03:46:36;6.10;;;4.95;;
9942;SDS011;5010;45.080;7.634;2023-03-24T03:49:03;5.80;;;4.35;;
9942;SDS011;5010;45.080;7.634;2023-03-24T03:51:32;10.45;;;5.05;;
9942;SDS011;5010;45.080;7.634;2023-03-24T03:54:01;9.07;;;5.50;;
9942;SDS011;5010;45.080;7.634;2023-03-24T03:56:31;6.85;;;5.63;;
9942;SDS011;5010;45.080;7.634;2023-03-24T03:59:01;6.53;;;5.53;;
9942;SDS011;5010;45.080;7.634;2023-03-24T04:01:30;7.10;;;6.50;;
9942;SDS011;5010;45.080;7.634;2023-03-24T04:04:07;7.72;;;5.28;;
9942;SDS011;5010;45.080;7.634;2023-03-24T04:06:47;7.22;;;6.15;;
9942;SDS011;5010;45.080;7.634;2023-03-24T04:09:29;7.63;;;5.70;;
9942;SDS011;5010;45.080;7.634;2023-03-24T04:12:10;6.47;;;6.07;;
9942;SDS011;5010;45.080;7.634;2023-03-24T04:14:52;7.22;;;5.95;;
9942;SDS011;5010;45.080;7.634;2023-03-24T04:17:45;5.80;;;4.90;;
9942;SDS011;5010;45.080;7.634;2023-03-24T04:20:21;7.50;;;5.07;;
9942;SDS011;5010;45.080;7.634;2023-03-24T04:23:00;6.95;;;5.28;;
9942;SDS011;5010;45.080;7.634;2023-03-24T04:25:33;6.15;;;4.80;;
9942;SDS011;5010;45.080;7.634;2023-03-24T04:28:16;7.18;;;4.80;;
9942;SDS011;5010;45.080;7.634;2023-03-24T04:30:52;6.53;;;5.07;;
9942;SDS011;5010;45.080;7.634;2023-03-24T04:33:26;5.68;;;4.55;;
9942;SDS011;5010;45.080;7.634;2023-03-24T04:35:59;8.25;;;5.07;;
9942;SDS011;5010;45.080;7.634;2023-03-24T04:38:31;7.88;;;5.32;;
9942;SDS011;5010;45.080;7.634;2023-03-24T04:41:02;6.63;;;5.28;;
9942;SDS011;5010;45.080;7.634;2023-03-24T04:43:31;6.13;;;5.22;;
9942;SDS011;5010;45.080;7.634;2023-03-24T04:46:02;6.30;;;5.35;;
9942;SDS011;5010;45.080;7.634;2023-03-24T04:48:30;6.32;;;4.75;;
9942;SDS011;5010;45.080;7.634;2023-03-24T04:50:57;6.15;;;4.60;;
9942;SDS011;5010;45.080;7.634;2023-03-24T04:53:27;7.18;;;5.10;;
9942;SDS011;5010;45.080;7.634;2023-03-24T04:56:05;6.10;;;5.28;;
9942;SDS011;5010;45.080;7.634;2023-03-24T04:58:47;6.72;;;4.63;;
9942;SDS011;5010;45.080;7.634;2023-03-24T05:01:16;6.05;;;5.38;;
9942;SDS011;5010;45.080;7.634;2023-03-24T05:03:45;6.93;;;6.20;;
9942;SDS011;5010;45.080;7.634;2023-03-24T05:06:12;7.28;;;4.85;;
9942;SDS011;5010;45.080;7.634;2023-03-24T05:08:39;6.80;;;4.97;;
9942;SDS011;5010;45.080;7.634;2023-03-24T05:11:06;6.38;;;5.50;;
9942;SDS011;5010;45.080;7.634;2023-03-24T05:13:33;7.13;;;5.93;;
9942;SDS011;5010;45.080;7.634;2023-03-24T05:16:00;7.03;;;5.78;;
9942;SDS011;5010;45.080;7.634;2023-03-24T05:18:28;6.90;;;6.22;;
9942;SDS011;5010;45.080;7.634;2023-03-24T05:20:55;5.93;;;5.03;;
9942;SDS011;5010;45.080;7.634;2023-03-24T05:23:22;7.30;;;5.80;;
9942;SDS011;5010;45.080;7.634;2023-03-24T05:25:49;5.95;;;5.07;;
9942;SDS011;5010;45.080;7.634;2023-03-24T05:28:15;6.78;;;4.95;;
9942;SDS011;5010;45.080;7.634;2023-03-24T05:30:42;8.55;;;6.70;;
9942;SDS011;5010;45.080;7.634;2023-03-24T05:33:09;8.73;;;5.70;;
9942;SDS011;5010;45.080;7.634;2023-03-24T05:35:37;6.13;;;4.43;;
9942;SDS011;5010;45.080;7.634;2023-03-24T05:38:04;7.03;;;4.85;;
9942;SDS011;5010;45.080;7.634;2023-03-24T05:40:31;6.57;;;5.07;;
9942;SDS011;5010;45.080;7.634;2023-03-24T05:42:58;7.75;;;5.72;;
9942;SDS011;5010;45.080;7.634;2023-03-24T05:45:25;6.78;;;5.43;;
9942;SDS011;5010;45.080;7.634;2023-03-24T05:47:53;7.20;;;5.82;;
9942;SDS011;5010;45.080;7.634;2023-03-24T05:50:20;10.13;;;6.30;;
9942;SDS011;5010;45.080;7.634;2023-03-24T05:52:49;6.95;;;5.78;;
9942;SDS011;5010;45.080;7.634;2023-03-24T05:55:16;7.65;;;5.57;;
9942;SDS011;5010;45.080;7.634;2023-03-24T05:57:43;8.32;;;6.15;;
9942;SDS011;5010;45.080;7.634;2023-03-24T06:00:11;7.95;;;5.25;;
9942;SDS011;5010;45.080;7.634;2023-03-24T06:02:41;5.65;;;3.90;;
9942;SDS011;5010;45.080;7.634;2023-03-24T06:05:08;7.35;;;5.40;;
9942;SDS011;5010;45.080;7.634;2023-03-24T06:07:36;7.30;;;6.18;;
9942;SDS011;5010;45.080;7.634;2023-03-24T06:10:06;6.65;;;4.45;;
9942;SDS011;5010;45.080;7.634;2023-03-24T06:12:34;7.50;;;5.82;;
9942;SDS011;5010;45.080;7.634;2023-03-24T06:15:01;10.45;;;5.43;;
9942;SDS011;5010;45.080;7.634;2023-03-24T06:17:29;6.20;;;4.90;;
9942;SDS011;5010;45.080;7.634;2023-03-24T06:19:56;7.00;;;5.53;;
9942;SDS011;5010;45.080;7.634;2023-03-24T06:22:29;6.50;;;5.00;;
9942;SDS011;5010;45.080;7.634;2023-03-24T06:24:57;6.25;;;5.68;;
9942;SDS011;5010;45.080;7.634;2023-03-24T06:27:25;7.32;;;6.28;;
9942;SDS011;5010;45.080;7.634;2023-03-24T06:29:54;6.47;;;5.10;;
9942;SDS011;5010;45.080;7.634;2023-03-24T06:32:21;6.00;;;5.43;;
9942;SDS011;5010;45.080;7.634;2023-03-24T06:34:48;8.43;;;6.05;;
9942;SDS011;5010;45.080;7.634;2023-03-24T06:37:15;8.38;;;6.50;;
9942;SDS011;5010;45.080;7.634;2023-03-24T06:39:43;7.05;;;5.53;;
9942;SDS011;5010;45.080;7.634;2023-03-24T06:42:10;7.20;;;5.70;;
9942;SDS011;5010;45.080;7.634;2023-03-24T06:44:39;6.45;;;5.63;;
9942;SDS011;5010;45.080;7.634;2023-03-24T06:47:07;6.47;;;4.90;;
9942;SDS011;5010;45.080;7.634;2023-03-24T06:49:34;7.63;;;5.82;;
9942;SDS011;5010;45.080;7.634;2023-03-24T06:52:01;6.78;;;5.57;;
9942;SDS011;5010;45.080;7.634;2023-03-24T06:54:28;8.93;;;5.80;;
9942;SDS011;5010;45.080;7.634;2023-03-24T06:56:55;5.90;;;4.80;;
9942;SDS011;5010;45.080;7.634;2023-03-24T06:59:22;7.65;;;5.57;;
9942;SDS011;5010;45.080;7.634;2023-03-24T07:01:50;5.70;;;4.43;;
9942;SDS011;5010;45.080;7.634;2023-03-24T07:04:18;7.88;;;5.25;;
9942;SDS011;5010;45.080;7.634;2023-03-24T07:06:46;7.03;;;6.00;;
9942;SDS011;5010;45.080;7.634;2023-03-24T07:09:14;6.80;;;5.55;;
9942;SDS011;5010;45.080;7.634;2023-03-24T07:11:41;7.90;;;5.50;;
9942;SDS011;5010;45.080;7.634;2023-03-24T07:14:08;7.93;;;5.95;;
9942;SDS011;5010;45.080;7.634;2023-03-24T07:16:35;6.07;;;5.13;;
9942;SDS011;5010;45.080;7.634;2023-03-24T07:19:03;7.22;;;5.72;;
9942;SDS011;5010;45.080;7.634;2023-03-24T07:21:30;8.32;;;5.72;;
9942;SDS011;5010;45.080;7.634;2023-03-24T07:23:57;8.93;;;5.45;;
9942;SDS011;5010;45.080;7.634;2023-03-24T07:26:24;8.52;;;5.55;;
9942;SDS011;5010;45.080;7.634;2023-03-24T07:28:50;9.15;;;6.90;;
9942;SDS011;5010;45.080;7.634;2023-03-24T07:31:17;8.32;;;6.57;;
9942;SDS011;5010;45.080;7.634;2023-03-24T07:33:46;7.75;;;6.40;;
9942;SDS011;5010;45.080;7.634;2023-03-24T07:36:14;7.18;;;5.30;;
9942;SDS011;5010;45.080;7.634;2023-03-24T07:38:41;7.50;;;5.43;;
9942;SDS011;5010;45.080;7.634;2023-03-24T07:41:08;8.55;;;5.13;;
9942;SDS011;5010;45.080;7.634;2023-03-24T07:43:35;8.57;;;6.45;;
9942;SDS011;5010;45.080;7.634;2023-03-24T07:46:02;9.20;;;6.53;;
9942;SDS011;5010;45.080;7.634;2023-03-24T07:48:29;8.27;;;6.30;;
9942;SDS011;5010;45.080;7.634;2023-03-24T07:50:56;7.57;;;5.22;;
9942;SDS011;5010;45.080;7.634;2023-03-24T07:53:24;8.48;;;6.20;;
9942;SDS011;5010;45.080;7.634;2023-03-24T07:55:51;7.07;;;6.68;;
9942;SDS011;5010;45.080;7.634;2023-03-24T07:58:18;7.57;;;6.43;;
9942;SDS011;5010;45.080;7.634;2023-03-24T08:00:44;9.95;;;6.65;;
9942;SDS011;5010;45.080;7.634;2023-03-24T08:03:11;6.90;;;5.85;;
9942;SDS011;5010;45.080;7.634;2023-03-24T08:05:39;7.97;;;5.03;;
9942;SDS011;5010;45.080;7.634;2023-03-24T08:08:07;6.72;;;5.55;;
9942;SDS011;5010;45.080;7.634;2023-03-24T08:10:36;6.03;;;4.65;;
9942;SDS011;5010;45.080;7.634;2023-03-24T08:13:02;6.75;;;5.63;;
9942;SDS011;5010;45.080;7.634;2023-03-24T08:15:30;7.63;;;6.10;;
9942;SDS011;5010;45.080;7.634;2023-03-24T08:17:57;9.32;;;6.40;;
9942;SDS011;5010;45.080;7.634;2023-03-24T08:20:24;8.73;;;5.55;;
9942;SDS011;5010;45.080;7.634;2023-03-24T08:22:51;8.00;;;5.90;;
9942;SDS011;5010;45.080;7.634;2023-03-24T08:25:20;6.95;;;5.60;;
9942;SDS011;5010;45.080;7.634;2023-03-24T08:27:50;10.18;;;6.40;;
9942;SDS011;5010;45.080;7.634;2023-03-24T08:30:18;11.05;;;5.63;;
9942;SDS011;5010;45.080;7.634;2023-03-24T08:32:47;7.00;;;5.50;;
9942;SDS011;5010;45.080;7.634;2023-03-24T08:35:16;10.50;;;8.13;;
9942;SDS011;5010;45.080;7.634;2023-03-24T08:37:44;7.97;;;6.20;;
9942;SDS011;5010;45.080;7.634;2023-03-24T08:40:11;6.13;;;5.22;;
9942;SDS011;5010;45.080;7.634;2023-03-24T08:42:43;9.00;;;4.90;;
9942;SDS011;5010;45.080;7.634;2023-03-24T08:45:14;8.57;;;5.22;;
9942;SDS011;5010;45.080;7.634;2023-03-24T08:47:44;37.80;;;6.30;;
9942;SDS011;5010;45.080;7.634;2023-03-24T08:50:12;8.02;;;5.70;;
9942;SDS011;5010;45.080;7.634;2023-03-24T08:52:39;5.80;;;4.90;;
9942;SDS011;5010;45.080;7.634;2023-03-24T08:55:06;7.43;;;6.82;;
9942;SDS011;5010;45.080;7.634;2023-03-24T08:57:34;7.68;;;5.55;;
9942;SDS011;5010;45.080;7.634;2023-03-24T09:00:01;7.72;;;7.32;;
9942;SDS011;5010;45.080;7.634;2023-03-24T09:02:35;8.10;;;6.20;;
9942;SDS011;5010;45.080;7.634;2023-03-24T09:05:02;8.65;;;6.15;;
9942;SDS011;5010;45.080;7.634;2023-03-24T09:07:29;7.82;;;6.40;;
9942;SDS011;5010;45.080;7.634;2023-03-24T09:09:56;7.45;;;5.10;;
9942;SDS011;5010;45.080;7.634;2023-03-24T09:12:23;8.65;;;6.13;;
9942;SDS011;5010;45.080;7.634;2023-03-24T09:14:50;7.25;;;6.85;;
9942;SDS011;5010;45.080;7.634;2023-03-24T09:17:17;12.45;;;6.97;;
9942;SDS011;5010;45.080;7.634;2023-03-24T09:19:45;8.90;;;5.32;;
9942;SDS011;5010;45.080;7.634;2023-03-24T09:22:12;8.00;;;5.70;;
9942;SDS011;5010;45.080;7.634;2023-03-24T09:24:39;7.18;;;5.80;;
9942;SDS011;5010;45.080;7.634;2023-03-24T09:27:06;8.32;;;6.60;;
9942;SDS011;5010;45.080;7.634;2023-03-24T09:29:33;9.60;;;6.07;;
9942;SDS011;5010;45.080;7.634;2023-03-24T09:31:59;8.18;;;5.68;;
9942;SDS011;5010;45.080;7.634;2023-03-24T09:34:26;8.02;;;5.18;;
9942;SDS011;5010;45.080;7.634;2023-03-24T09:36:56;10.80;;;4.88;;
9942;SDS011;5010;45.080;7.634;2023-03-24T09:39:22;10.27;;;6.88;;
9942;SDS011;5010;45.080;7.634;2023-03-24T09:41:49;6.15;;;5.15;;
9942;SDS011;5010;45.080;7.634;2023-03-24T09:44:20;14.23;;;7.85;;
9942;SDS011;5010;45.080;7.634;2023-03-24T09:46:50;14.00;;;5.97;;
9942;SDS011;5010;45.080;7.634;2023-03-24T09:49:21;6.70;;;5.55;;
9942;SDS011;5010;45.080;7.634;2023-03-24T09:51:50;7.90;;;6.00;;
9942;SDS011;5010;45.080;7.634;2023-03-24T09:54:25;8.05;;;5.90;;
9942;SDS011;5010;45.080;7.634;2023-03-24T09:56:57;6.90;;;5.90;;
9942;SDS011;5010;45.080;7.634;2023-03-24T09:59:28;7.88;;;6.05;;
9942;SDS011;5010;45.080;7.634;2023-03-24T10:01:59;9.15;;;6.50;;
9942;SDS011;5010;45.080;7.634;2023-03-24T10:04:28;6.25;;;5.10;;
9942;SDS011;5010;45.080;7.634;2023-03-24T10:06:58;8.07;;;6.55;;
9942;SDS011;5010;45.080;7.634;2023-03-24T10:09:33;9.00;;;6.57;;
9942;SDS011;5010;45.080;7.634;2023-03-24T10:12:13;10.30;;;6.22;;
9942;SDS011;5010;45.080;7.634;2023-03-24T10:14:52;12.30;;;6.75;;
9942;SDS011;5010;45.080;7.634;2023-03-24T10:17:28;6.60;;;5.50;;
9942;SDS011;5010;45.080;7.634;2023-03-24T10:20:04;7.40;;;5.75;;
9942;SDS011;5010;45.080;7.634;2023-03-24T10:22:42;7.65;;;5.97;;
9942;SDS011;5010;45.080;7.634;2023-03-24T10:25:19;17.00;;;6.15;;
9942;SDS011;5010;45.080;7.634;2023-03-24T10:27:50;8.70;;;5.70;;
9942;SDS011;5010;45.080;7.634;2023-03-24T10:30:21;9.63;;;5.78;;
9942;SDS011;5010;45.080;7.634;2023-03-24T10:32:51;6.93;;;4.70;;
9942;SDS011;5010;45.080;7.634;2023-03-24T10:35:20;6.80;;;5.93;;
9942;SDS011;5010;45.080;7.634;2023-03-24T10:37:49;10.40;;;6.30;;
9942;SDS011;5010;45.080;7.634;2023-03-24T10:40:18;9.82;;;5.82;;
9942;SDS011;5010;45.080;7.634;2023-03-24T10:42:49;12.07;;;6.50;;
9942;SDS011;5010;45.080;7.634;2023-03-24T10:45:19;9.57;;;6.40;;
9942;SDS011;5010;45.080;7.634;2023-03-24T10:47:51;7.53;;;5.90;;
9942;SDS011;5010;45.080;7.634;2023-03-24T10:50:22;6.70;;;6.07;;
9942;SDS011;5010;45.080;7.634;2023-03-24T10:52:52;9.48;;;6.72;;
9942;SDS011;5010;45.080;7.634;2023-03-24T10:55:23;8.73;;;5.65;;
9942;SDS011;5010;45.080;7.634;2023-03-24T10:57:56;6.63;;;5.70;;
9942;SDS011;5010;45.080;7.634;2023-03-24T11:00:24;7.80;;;6.80;;
9942;SDS011;5010;45.080;7.634;2023-03-24T11:02:55;7.72;;;6.55;;
9942;SDS011;5010;45.080;7.634;2023-03-24T11:05:25;10.23;;;5.10;;
9942;SDS011;5010;45.080;7.634;2023-03-24T11:07:56;7.88;;;5.80;;
9942;SDS011;5010;45.080;7.634;2023-03-24T11:10:36;8.52;;;6.25;;
9942;SDS011;5010;45.080;7.634;2023-03-24T11:13:03;9.63;;;6.05;;
9942;SDS011;5010;45.080;7.634;2023-03-24T11:15:32;9.02;;;7.80;;
9942;SDS011;5010;45.080;7.634;2023-03-24T11:18:05;6.70;;;5.50;;
9942;SDS011;5010;45.080;7.634;2023-03-24T11:20:40;10.15;;;7.40;;
9942;SDS011;5010;45.080;7.634;2023-03-24T11:23:18;8.73;;;6.68;;
9942;SDS011;5010;45.080;7.634;2023-03-24T11:26:00;8.90;;;6.95;;
9942;SDS011;5010;45.080;7.634;2023-03-24T11:28:33;7.75;;;6.85;;
9942;SDS011;5010;45.080;7.634;2023-03-24T11:31:04;10.27;;;6.55;;
9942;SDS011;5010;45.080;7.634;2023-03-24T11:33:33;8.60;;;5.45;;
9942;SDS011;5010;45.080;7.634;2023-03-24T11:36:13;10.05;;;7.00;;
9942;SDS011;5010;45.080;7.634;2023-03-24T11:39:12;12.48;;;6.30;;
9942;SDS011;5010;45.080;7.634;2023-03-24T11:41:49;8.68;;;4.90;;
9942;SDS011;5010;45.080;7.634;2023-03-24T11:44:40;7.38;;;5.40;;
9942;SDS011;5010;45.080;7.634;2023-03-24T11:47:12;10.18;;;5.85;;
9942;SDS011;5010;45.080;7.634;2023-03-24T11:49:47;7.00;;;4.90;;
9942;SDS011;5010;45.080;7.634;2023-03-24T11:52:20;7.43;;;6.28;;
9942;SDS011;5010;45.080;7.634;2023-03-24T11:54:54;6.80;;;6.10;;
9942;SDS011;5010;45.080;7.634;2023-03-24T11:57:25;7.30;;;5.70;;
9942;SDS011;5010;45.080;7.634;2023-03-24T12:00:06;7.75;;;6.30;;
9942;SDS011;5010;45.080;7.634;2023-03-24T12:02:47;10.43;;;7.93;;
9942;SDS011;5010;45.080;7.634;2023-03-24T12:05:30;10.00;;;5.93;;
9942;SDS011;5010;45.080;7.634;2023-03-24T12:11:07;8.18;;;5.10;;
9942;SDS011;5010;45.080;7.634;2023-03-24T12:13:41;11.45;;;6.15;;
9942;SDS011;5010;45.080;7.634;2023-03-24T12:16:19;7.57;;;5.65;;
9942;SDS011;5010;45.080;7.634;2023-03-24T12:19:00;6.72;;;4.80;;
9942;SDS011;5010;45.080;7.634;2023-03-24T12:22:01;8.85;;;7.22;;
9942;SDS011;5010;45.080;7.634;2023-03-24T12:24:44;7.45;;;6.07;;
9942;SDS011;5010;45.080;7.634;2023-03-24T12:27:24;7.60;;;6.60;;
9942;SDS011;5010;45.080;7.634;2023-03-24T12:29:59;11.45;;;7.82;;
9942;SDS011;5010;45.080;7.634;2023-03-24T12:32:35;8.15;;;7.05;;
9942;SDS011;5010;45.080;7.634;2023-03-24T12:35:29;10.88;;;7.03;;
9942;SDS011;5010;45.080;7.634;2023-03-24T12:38:16;8.20;;;6.50;;
9942;SDS011;5010;45.080;7.634;2023-03-24T12:43:54;7.57;;;6.03;;
9942;SDS011;5010;45.080;7.634;2023-03-24T12:46:39;10.15;;;7.45;;
9942;SDS011;5010;45.080;7.634;2023-03-24T12:49:20;8.43;;;7.10;;
9942;SDS011;5010;45.080;7.634;2023-03-24T12:51:59;10.43;;;6.72;;
9942;SDS011;5010;45.080;7.634;2023-03-24T12:54:42;15.48;;;6.75;;
9942;SDS011;5010;45.080;7.634;2023-03-24T12:57:15;7.32;;;6.10;;
9942;SDS011;5010;45.080;7.634;2023-03-24T12:59:45;7.78;;;6.65;;
9942;SDS011;5010;45.080;7.634;2023-03-24T13:02:21;9.07;;;6.28;;
9942;SDS011;5010;45.080;7.634;2023-03-24T13:04:53;7.38;;;5.65;;
9942;SDS011;5010;45.080;7.634;2023-03-24T13:07:28;10.82;;;7.00;;
9942;SDS011;5010;45.080;7.634;2023-03-24T13:09:59;13.20;;;8.45;;
9942;SDS011;5010;45.080;7.634;2023-03-24T13:12:31;8.85;;;6.55;;
9942;SDS011;5010;45.080;7.634;2023-03-24T13:15:03;10.15;;;8.10;;
9942;SDS011;5010;45.080;7.634;2023-03-24T13:17:42;8.68;;;7.90;;
9942;SDS011;5010;45.080;7.634;2023-03-24T13:20:16;7.97;;;7.10;;
9942;SDS011;5010;45.080;7.634;2023-03-24T13:22:50;14.10;;;8.70;;
9942;SDS011;5010;45.080;7.634;2023-03-24T13:25:19;8.98;;;7.68;;
9942;SDS011;5010;45.080;7.634;2023-03-24T13:27:55;10.75;;;7.43;;
9942;SDS011;5010;45.080;7.634;2023-03-24T13:30:30;10.73;;;8.60;;
9942;SDS011;5010;45.080;7.634;2023-03-24T13:33:01;13.38;;;8.13;;
9942;SDS011;5010;45.080;7.634;2023-03-24T13:35:37;8.95;;;7.20;;
9942;SDS011;5010;45.080;7.634;2023-03-24T13:38:22;7.85;;;6.72;;
9942;SDS011;5010;45.080;7.634;2023-03-24T13:40:54;9.93;;;8.02;;
9942;SDS011;5010;45.080;7.634;2023-03-24T13:43:22;8.40;;;7.93;;
9942;SDS011;5010;45.080;7.634;2023-03-24T13:45:51;11.45;;;7.65;;
9942;SDS011;5010;45.080;7.634;2023-03-24T13:48:28;11.18;;;7.65;;
9942;SDS011;5010;45.080;7.634;2023-03-24T13:50:59;10.27;;;7.85;;
9942;SDS011;5010;45.080;7.634;2023-03-24T13:53:30;12.07;;;6.93;;
9942;SDS011;5010;45.080;7.634;2023-03-24T13:56:00;11.43;;;7.57;;
9942;SDS011;5010;45.080;7.634;2023-03-24T13:58:43;10.77;;;7.88;;
9942;SDS011;5010;45.080;7.634;2023-03-24T14:01:17;11.15;;;6.82;;
9942;SDS011;5010;45.080;7.634;2023-03-24T14:03:46;7.15;;;5.05;;
9942;SDS011;5010;45.080;7.634;2023-03-24T14:06:45;7.93;;;5.88;;
9942;SDS011;5010;45.080;7.634;2023-03-24T14:09:14;11.60;;;7.78;;
9942;SDS011;5010;45.080;7.634;2023-03-24T14:11:49;9.52;;;6.38;;
9942;SDS011;5010;45.080;7.634;2023-03-24T14:14:34;6.35;;;4.70;;
9942;SDS011;5010;45.080;7.634;2023-03-24T14:17:22;8.07;;;6.82;;
9942;SDS011;5010;45.080;7.634;2023-03-24T14:22:40;10.43;;;9.45;;
9942;SDS011;5010;45.080;7.634;2023-03-24T14:25:22;12.95;;;9.60;;
9942;SDS011;5010;45.080;7.634;2023-03-24T14:27:51;12.50;;;9.18;;
9942;SDS011;5010;45.080;7.634;2023-03-24T14:30:20;9.93;;;8.13;;
9942;SDS011;5010;45.080;7.634;2023-03-24T14:32:50;7.63;;;6.97;;
9942;SDS011;5010;45.080;7.634;2023-03-24T14:35:22;11.00;;;7.90;;
9942;SDS011;5010;45.080;7.634;2023-03-24T14:37:56;9.48;;;7.45;;
9942;SDS011;5010;45.080;7.634;2023-03-24T14:40:26;9.80;;;8.40;;
9942;SDS011;5010;45.080;7.634;2023-03-24T14:43:02;8.68;;;7.60;;
9942;SDS011;5010;45.080;7.634;2023-03-24T14:45:51;9.88;;;7.70;;
9942;SDS011;5010;45.080;7.634;2023-03-24T14:48:27;8.80;;;8.27;;
9942;SDS011;5010;45.080;7.634;2023-03-24T14:50:57;10.32;;;9.85;;
9942;SDS011;5010;45.080;7.634;2023-03-24T14:53:28;11.85;;;10.23;;
9942;SDS011;5010;45.080;7.634;2023-03-24T14:55:55;10.32;;;8.52;;
9942;SDS011;5010;45.080;7.634;2023-03-24T14:58:23;13.05;;;8.52;;
9942;SDS011;5010;45.080;7.634;2023-03-24T15:00:56;7.47;;;6.85;;
9942;SDS011;5010;45.080;7.634;2023-03-24T15:03:27;8.98;;;6.78;;
9942;SDS011;5010;45.080;7.634;2023-03-24T15:06:02;11.30;;;8.60;;
9942;SDS011;5010;45.080;7.634;2023-03-24T15:08:42;11.45;;;9.40;;
9942;SDS011;5010;45.080;7.634;2023-03-24T15:11:12;13.15;;;9.23;;
9942;SDS011;5010;45.080;7.634;2023-03-24T15:13:42;14.85;;;9.48;;
9942;SDS011;5010;45.080;7.634;2023-03-24T15:16:15;13.40;;;8.48;;
9942;SDS011;5010;45.080;7.634;2023-03-24T15:18:45;14.98;;;8.82;;
9942;SDS011;5010;45.080;7.634;2023-03-24T15:21:18;9.13;;;7.18;;
9942;SDS011;5010;45.080;7.634;2023-03-24T15:23:50;9.55;;;7.50;;
9942;SDS011;5010;45.080;7.634;2023-03-24T15:26:17;8.60;;;7.00;;
9942;SDS011;5010;45.080;7.634;2023-03-24T15:28:52;11.75;;;9.23;;
9942;SDS011;5010;45.080;7.634;2023-03-24T15:31:22;8.63;;;8.10;;
9942;SDS011;5010;45.080;7.634;2023-03-24T15:33:54;9.75;;;8.07;;
9942;SDS011;5010;45.080;7.634;2023-03-24T15:36:32;11.23;;;7.50;;
9942;SDS011;5010;45.080;7.634;2023-03-24T15:39:02;9.10;;;8.40;;
9942;SDS011;5010;45.080;7.634;2023-03-24T15:41:42;20.55;;;10.63;;
9942;SDS011;5010;45.080;7.634;2023-03-24T15:44:09;10.27;;;9.18;;
9942;SDS011;5010;45.080;7.634;2023-03-24T15:46:44;10.93;;;10.32;;
9942;SDS011;5010;45.080;7.634;2023-03-24T15:49:15;11.20;;;10.60;;
9942;SDS011;5010;45.080;7.634;2023-03-24T15:51:49;11.50;;;9.00;;